Sarasota, FL (34231)

2:29 AM EDT on August 29, 2015 (GMT -0400)
Aqualane Estates | | Change Station
CLOSE
Current Station
Personal Weather Station
Location: Sarasota, FL
Elevation: 23 ft
Nearby Weather Stations
Active Advisory: Flood Warning

Elev 23 ft 27.26 °N, 82.53 °W | Updated 2 minutes ago

Clear
Clear
73.8 °F
Feels Like 71 °F
N
2.0
Wind Variable Wind from East
Gusts 4.0 mph

Today
High -- | Low -- °F
--% Chance of Precip.
Yesterday
High -- | Low -- °F
Precip. -- in
7:07 AM 7:53 PM
Full, 100% visible
Pressure 30.02 in
Visibility 10.0 miles
Clouds Clear
Heat Index 71 °F
Dew Point 71 °F
Humidity 92%
Rainfall 0.00 in
Snow Depth Not available.
UV 0 out of 12
Pollen 3.60 out of 12
Air Quality Not available.
Flu Activity Not available.
METAR KSRQ 290553Z AUTO 07006KT 10SM CLR 23/22 A3002 RMK AO2 SLP166 T02280222 10256 20228 58007
Pressure 30.02 in
Visibility 10.0 miles
Clouds Clear
Heat Index 71 °F
Dew Point 71 °F
Humidity 92%
Rainfall 0.00 in
Snow Depth Not available.
UV 0 out of 12
Pollen 3.60 out of 12
Air Quality Not available.
Flu Activity Not available.
METAR KSRQ 290553Z AUTO 07006KT 10SM CLR 23/22 A3002 RMK AO2 SLP166 T02280222 10256 20228 58007
Erika has become very unorganized in the face of strong wind shear in the eastern Caribbean Sea. The storm will pass directly over mountainous Hispaniola today, likely weakening it further. If the storm remains intact, it could reach an area favorable for strengthening before moving onto Florida by early next week. Follow the live blog

10-Day Weather Forecast

×

Almanac

Astronomy

Aug. 29, 2015 Rise Set
Actual Time
Civil Twilight
Nautical Twilight
Astronomical Twilight
Moon
Length of Visible Light
Length of Day
Tomorrow will be .
, % of the Moon is Illuminated

Today's Extremes

State Highs State Lows

Community

WunderPhotos

Upload Photos

1,850,622 photos uploaded!

WunderBlogs® & News

Nearby

Air Quality

  Air Quality AQ Index Pollutant
Not available.

Snow Depth

Station Depth Elevation

Earthquake Activity

City Distance Mag. Time & Date
Minimum magnitude displayed is 2.5.

Coastal Water Temperatures

Place Temperature

Stations

Nearby Weather Stations

Station Location Temp. Windchill Dew Point Humidity Wind Precip. Elev Updated Type
                   
Flood Warning
Statement as of 9:51 PM EDT on August 28, 2015

The Flood Warning continues for
the Myakka River at Myakka River State Park
* until further notice
* at 09 PM Friday the stage was 8.6 feet.
* Flood stage is 7 feet.
* The river will continue rising to near 8.7 feet by early Sunday morning then
begin falling.
* Impact... at 8.5 feet... most of Myakka State Park is closed.
* Flood history... this crest compares to a previous crest of 7.2 feet on Sep 9
2013.



             Fld observed forecast 8am
location stg stg day time Sat sun Mon Tue Wed

Myakka
Myakka rive 7 8.6 Fri 09 PM 8.6 8.7 8.7 8.5 8.2




Lat... Lon 2726 8226 2715 8234 2715 8238 2731 8226